sensor_id;sensor_type;location;lat;lon;timestamp;P1;durP1;ratioP1;P2;durP2;ratioP2
3647;SDS011;1840;48.892;15.312;2023-01-15T00:00:00;11.90;;;3.07;;
3647;SDS011;1840;48.892;15.312;2023-01-15T00:02:29;6.60;;;4.03;;
3647;SDS011;1840;48.892;15.312;2023-01-15T00:04:57;8.00;;;3.33;;
3647;SDS011;1840;48.892;15.312;2023-01-15T00:07:29;3.67;;;2.43;;
3647;SDS011;1840;48.892;15.312;2023-01-15T00:09:58;6.70;;;3.73;;
3647;SDS011;1840;48.892;15.312;2023-01-15T00:12:26;10.20;;;4.93;;
3647;SDS011;1840;48.892;15.312;2023-01-15T00:14:54;8.93;;;3.20;;
3647;SDS011;1840;48.892;15.312;2023-01-15T00:17:23;9.10;;;2.53;;
3647;SDS011;1840;48.892;15.312;2023-01-15T00:19:52;5.60;;;3.30;;
3647;SDS011;1840;48.892;15.312;2023-01-15T00:22:20;5.43;;;2.80;;
3647;SDS011;1840;48.892;15.312;2023-01-15T00:24:49;4.73;;;2.77;;
3647;SDS011;1840;48.892;15.312;2023-01-15T00:27:31;3.70;;;2.10;;
3647;SDS011;1840;48.892;15.312;2023-01-15T00:30:05;3.00;;;1.60;;
3647;SDS011;1840;48.892;15.312;2023-01-15T00:32:35;3.67;;;1.73;;
3647;SDS011;1840;48.892;15.312;2023-01-15T00:35:04;2.83;;;1.73;;
3647;SDS011;1840;48.892;15.312;2023-01-15T00:37:32;1.77;;;1.20;;
3647;SDS011;1840;48.892;15.312;2023-01-15T00:40:02;3.10;;;1.63;;
3647;SDS011;1840;48.892;15.312;2023-01-15T00:42:30;4.90;;;2.03;;
3647;SDS011;1840;48.892;15.312;2023-01-15T00:44:58;3.00;;;1.30;;
3647;SDS011;1840;48.892;15.312;2023-01-15T00:47:33;4.77;;;1.20;;
3647;SDS011;1840;48.892;15.312;2023-01-15T00:50:00;2.07;;;1.30;;
3647;SDS011;1840;48.892;15.312;2023-01-15T00:52:29;2.80;;;1.60;;
3647;SDS011;1840;48.892;15.312;2023-01-15T00:54:57;1.67;;;1.00;;
3647;SDS011;1840;48.892;15.312;2023-01-15T00:57:26;2.77;;;1.10;;
3647;SDS011;1840;48.892;15.312;2023-01-15T00:59:54;3.47;;;0.90;;
3647;SDS011;1840;48.892;15.312;2023-01-15T01:02:22;2.17;;;1.10;;
3647;SDS011;1840;48.892;15.312;2023-01-15T01:04:50;2.40;;;1.40;;
3647;SDS011;1840;48.892;15.312;2023-01-15T01:07:19;8.73;;;1.40;;
3647;SDS011;1840;48.892;15.312;2023-01-15T01:09:47;3.53;;;1.70;;
3647;SDS011;1840;48.892;15.312;2023-01-15T01:12:15;4.10;;;1.60;;
3647;SDS011;1840;48.892;15.312;2023-01-15T01:14:44;1.70;;;1.10;;
3647;SDS011;1840;48.892;15.312;2023-01-15T01:17:12;2.13;;;1.20;;
3647;SDS011;1840;48.892;15.312;2023-01-15T01:19:40;2.80;;;1.40;;
3647;SDS011;1840;48.892;15.312;2023-01-15T01:22:08;1.70;;;1.03;;
3647;SDS011;1840;48.892;15.312;2023-01-15T01:24:36;2.17;;;1.00;;
3647;SDS011;1840;48.892;15.312;2023-01-15T01:27:04;2.23;;;1.27;;
3647;SDS011;1840;48.892;15.312;2023-01-15T01:29:32;2.50;;;0.83;;
3647;SDS011;1840;48.892;15.312;2023-01-15T01:32:01;3.30;;;1.10;;
3647;SDS011;1840;48.892;15.312;2023-01-15T01:34:29;2.20;;;1.10;;
3647;SDS011;1840;48.892;15.312;2023-01-15T01:36:58;4.07;;;1.23;;
3647;SDS011;1840;48.892;15.312;2023-01-15T01:39:26;2.17;;;1.10;;
3647;SDS011;1840;48.892;15.312;2023-01-15T01:41:54;3.10;;;1.27;;
3647;SDS011;1840;48.892;15.312;2023-01-15T01:47:28;3.20;;;0.97;;
3647;SDS011;1840;48.892;15.312;2023-01-15T01:49:57;1.83;;;1.00;;
3647;SDS011;1840;48.892;15.312;2023-01-15T01:52:30;2.70;;;1.20;;
3647;SDS011;1840;48.892;15.312;2023-01-15T01:55:03;2.17;;;1.20;;
3647;SDS011;1840;48.892;15.312;2023-01-15T01:57:33;2.77;;;1.27;;
3647;SDS011;1840;48.892;15.312;2023-01-15T02:00:02;2.33;;;1.30;;
3647;SDS011;1840;48.892;15.312;2023-01-15T02:02:33;3.77;;;1.30;;
3647;SDS011;1840;48.892;15.312;2023-01-15T02:05:02;5.30;;;1.60;;
3647;SDS011;1840;48.892;15.312;2023-01-15T02:07:32;2.50;;;1.17;;
3647;SDS011;1840;48.892;15.312;2023-01-15T02:10:00;1.80;;;1.10;;
3647;SDS011;1840;48.892;15.312;2023-01-15T02:12:31;3.30;;;1.40;;
3647;SDS011;1840;48.892;15.312;2023-01-15T02:15:03;3.97;;;1.20;;
3647;SDS011;1840;48.892;15.312;2023-01-15T02:17:37;3.20;;;1.13;;
3647;SDS011;1840;48.892;15.312;2023-01-15T02:20:18;2.90;;;1.53;;
3647;SDS011;1840;48.892;15.312;2023-01-15T02:22:57;2.10;;;1.20;;
3647;SDS011;1840;48.892;15.312;2023-01-15T02:25:52;2.90;;;1.47;;
3647;SDS011;1840;48.892;15.312;2023-01-15T02:28:31;2.90;;;1.33;;
3647;SDS011;1840;48.892;15.312;2023-01-15T02:31:08;4.30;;;1.27;;
3647;SDS011;1840;48.892;15.312;2023-01-15T02:33:41;2.77;;;1.10;;
3647;SDS011;1840;48.892;15.312;2023-01-15T02:36:13;3.93;;;1.23;;
3647;SDS011;1840;48.892;15.312;2023-01-15T02:38:45;2.23;;;1.17;;
3647;SDS011;1840;48.892;15.312;2023-01-15T02:41:15;2.23;;;1.23;;
3647;SDS011;1840;48.892;15.312;2023-01-15T02:43:49;4.20;;;1.07;;
3647;SDS011;1840;48.892;15.312;2023-01-15T02:46:21;3.40;;;1.30;;
3647;SDS011;1840;48.892;15.312;2023-01-15T02:48:52;2.23;;;1.40;;
3647;SDS011;1840;48.892;15.312;2023-01-15T02:51:22;1.87;;;1.23;;
3647;SDS011;1840;48.892;15.312;2023-01-15T02:53:56;3.03;;;1.27;;
3647;SDS011;1840;48.892;15.312;2023-01-15T02:56:28;3.70;;;1.40;;
3647;SDS011;1840;48.892;15.312;2023-01-15T02:59:03;2.33;;;1.23;;
3647;SDS011;1840;48.892;15.312;2023-01-15T03:01:34;1.90;;;1.10;;
3647;SDS011;1840;48.892;15.312;2023-01-15T03:04:09;2.50;;;1.43;;
3647;SDS011;1840;48.892;15.312;2023-01-15T03:06:42;6.37;;;1.33;;
3647;SDS011;1840;48.892;15.312;2023-01-15T03:09:14;3.37;;;1.50;;
3647;SDS011;1840;48.892;15.312;2023-01-15T03:11:44;2.00;;;1.17;;
3647;SDS011;1840;48.892;15.312;2023-01-15T03:14:19;2.90;;;1.20;;
3647;SDS011;1840;48.892;15.312;2023-01-15T03:16:52;2.00;;;1.17;;
3647;SDS011;1840;48.892;15.312;2023-01-15T03:19:25;28.97;;;26.50;;
3647;SDS011;1840;48.892;15.312;2023-01-15T03:21:56;6.70;;;5.73;;
3647;SDS011;1840;48.892;15.312;2023-01-15T03:24:31;3.40;;;2.30;;
3647;SDS011;1840;48.892;15.312;2023-01-15T03:27:03;3.37;;;2.10;;
3647;SDS011;1840;48.892;15.312;2023-01-15T03:29:33;2.23;;;1.03;;
3647;SDS011;1840;48.892;15.312;2023-01-15T03:32:04;2.20;;;1.03;;
3647;SDS011;1840;48.892;15.312;2023-01-15T03:34:35;2.80;;;1.30;;
3647;SDS011;1840;48.892;15.312;2023-01-15T03:37:06;2.20;;;1.07;;
3647;SDS011;1840;48.892;15.312;2023-01-15T03:39:34;4.00;;;1.40;;
3647;SDS011;1840;48.892;15.312;2023-01-15T03:42:06;2.00;;;1.10;;
3647;SDS011;1840;48.892;15.312;2023-01-15T03:44:45;3.10;;;1.10;;
3647;SDS011;1840;48.892;15.312;2023-01-15T03:47:23;7.00;;;1.30;;
3647;SDS011;1840;48.892;15.312;2023-01-15T03:50:01;2.63;;;1.20;;
3647;SDS011;1840;48.892;15.312;2023-01-15T03:52:34;2.77;;;1.50;;
3647;SDS011;1840;48.892;15.312;2023-01-15T03:55:10;2.47;;;1.37;;
3647;SDS011;1840;48.892;15.312;2023-01-15T03:57:42;3.30;;;1.40;;
3647;SDS011;1840;48.892;15.312;2023-01-15T04:00:18;3.43;;;1.43;;
3647;SDS011;1840;48.892;15.312;2023-01-15T04:02:49;4.77;;;1.63;;
3647;SDS011;1840;48.892;15.312;2023-01-15T04:05:20;2.27;;;1.47;;
3647;SDS011;1840;48.892;15.312;2023-01-15T04:07:50;2.70;;;1.30;;
3647;SDS011;1840;48.892;15.312;2023-01-15T04:10:19;3.40;;;1.40;;
3647;SDS011;1840;48.892;15.312;2023-01-15T04:12:47;3.23;;;1.30;;
3647;SDS011;1840;48.892;15.312;2023-01-15T04:15:15;2.00;;;1.30;;
3647;SDS011;1840;48.892;15.312;2023-01-15T04:17:45;2.30;;;1.37;;
3647;SDS011;1840;48.892;15.312;2023-01-15T04:20:13;3.57;;;1.40;;
3647;SDS011;1840;48.892;15.312;2023-01-15T04:22:41;2.30;;;1.17;;
3647;SDS011;1840;48.892;15.312;2023-01-15T04:25:09;4.33;;;1.50;;
3647;SDS011;1840;48.892;15.312;2023-01-15T04:27:38;2.20;;;1.33;;
3647;SDS011;1840;48.892;15.312;2023-01-15T04:30:06;2.23;;;1.17;;
3647;SDS011;1840;48.892;15.312;2023-01-15T04:32:36;2.90;;;1.47;;
3647;SDS011;1840;48.892;15.312;2023-01-15T04:35:05;2.47;;;1.47;;
3647;SDS011;1840;48.892;15.312;2023-01-15T04:37:33;5.53;;;1.97;;
3647;SDS011;1840;48.892;15.312;2023-01-15T04:40:01;4.17;;;2.00;;
3647;SDS011;1840;48.892;15.312;2023-01-15T04:42:30;3.50;;;1.70;;
3647;SDS011;1840;48.892;15.312;2023-01-15T04:45:15;2.80;;;1.50;;
3647;SDS011;1840;48.892;15.312;2023-01-15T04:47:45;2.20;;;1.27;;
3647;SDS011;1840;48.892;15.312;2023-01-15T04:50:13;2.53;;;1.30;;
3647;SDS011;1840;48.892;15.312;2023-01-15T04:52:41;3.10;;;1.40;;
3647;SDS011;1840;48.892;15.312;2023-01-15T04:55:09;2.43;;;1.30;;
3647;SDS011;1840;48.892;15.312;2023-01-15T04:57:36;2.07;;;1.13;;
3647;SDS011;1840;48.892;15.312;2023-01-15T05:00:05;3.07;;;1.47;;
3647;SDS011;1840;48.892;15.312;2023-01-15T05:02:34;4.87;;;1.60;;
3647;SDS011;1840;48.892;15.312;2023-01-15T05:05:04;2.43;;;1.50;;
3647;SDS011;1840;48.892;15.312;2023-01-15T05:07:32;2.30;;;1.20;;
3647;SDS011;1840;48.892;15.312;2023-01-15T05:10:01;2.80;;;1.37;;
3647;SDS011;1840;48.892;15.312;2023-01-15T05:12:29;2.73;;;1.40;;
3647;SDS011;1840;48.892;15.312;2023-01-15T05:14:57;2.17;;;1.30;;
3647;SDS011;1840;48.892;15.312;2023-01-15T05:17:25;5.87;;;2.67;;
3647;SDS011;1840;48.892;15.312;2023-01-15T05:19:54;10.33;;;6.10;;
3647;SDS011;1840;48.892;15.312;2023-01-15T05:22:23;8.10;;;3.97;;
3647;SDS011;1840;48.892;15.312;2023-01-15T05:24:51;9.10;;;4.60;;
3647;SDS011;1840;48.892;15.312;2023-01-15T05:27:19;11.73;;;6.60;;
3647;SDS011;1840;48.892;15.312;2023-01-15T05:29:47;3.47;;;2.20;;
3647;SDS011;1840;48.892;15.312;2023-01-15T05:32:15;10.30;;;4.37;;
3647;SDS011;1840;48.892;15.312;2023-01-15T05:34:43;8.00;;;3.37;;
3647;SDS011;1840;48.892;15.312;2023-01-15T05:37:11;7.97;;;2.50;;
3647;SDS011;1840;48.892;15.312;2023-01-15T05:39:40;6.20;;;2.07;;
3647;SDS011;1840;48.892;15.312;2023-01-15T05:42:08;5.83;;;2.17;;
3647;SDS011;1840;48.892;15.312;2023-01-15T05:44:36;6.13;;;2.20;;
3647;SDS011;1840;48.892;15.312;2023-01-15T05:47:04;6.63;;;2.50;;
3647;SDS011;1840;48.892;15.312;2023-01-15T05:49:33;7.27;;;2.17;;
3647;SDS011;1840;48.892;15.312;2023-01-15T05:52:01;7.47;;;5.17;;
3647;SDS011;1840;48.892;15.312;2023-01-15T05:54:30;3.20;;;2.00;;
3647;SDS011;1840;48.892;15.312;2023-01-15T05:57:01;9.03;;;2.57;;
3647;SDS011;1840;48.892;15.312;2023-01-15T05:59:30;8.23;;;2.40;;
3647;SDS011;1840;48.892;15.312;2023-01-15T06:01:59;6.43;;;2.20;;
3647;SDS011;1840;48.892;15.312;2023-01-15T06:04:28;4.10;;;2.50;;
3647;SDS011;1840;48.892;15.312;2023-01-15T06:06:56;4.93;;;2.00;;
3647;SDS011;1840;48.892;15.312;2023-01-15T06:09:25;16.53;;;4.40;;
3647;SDS011;1840;48.892;15.312;2023-01-15T06:11:54;10.20;;;6.23;;
3647;SDS011;1840;48.892;15.312;2023-01-15T06:14:24;16.27;;;7.67;;
3647;SDS011;1840;48.892;15.312;2023-01-15T06:16:52;14.03;;;5.97;;
3647;SDS011;1840;48.892;15.312;2023-01-15T06:19:20;5.27;;;3.10;;
3647;SDS011;1840;48.892;15.312;2023-01-15T06:21:48;7.07;;;3.00;;
3647;SDS011;1840;48.892;15.312;2023-01-15T06:24:16;6.07;;;3.27;;
3647;SDS011;1840;48.892;15.312;2023-01-15T06:26:45;3.03;;;1.70;;
3647;SDS011;1840;48.892;15.312;2023-01-15T06:29:13;8.10;;;2.47;;
3647;SDS011;1840;48.892;15.312;2023-01-15T06:31:45;6.57;;;2.30;;
3647;SDS011;1840;48.892;15.312;2023-01-15T06:34:14;3.37;;;2.03;;
3647;SDS011;1840;48.892;15.312;2023-01-15T06:36:43;3.90;;;2.40;;
3647;SDS011;1840;48.892;15.312;2023-01-15T06:39:11;5.10;;;2.30;;
3647;SDS011;1840;48.892;15.312;2023-01-15T06:41:38;5.23;;;3.40;;
3647;SDS011;1840;48.892;15.312;2023-01-15T06:44:24;3.93;;;2.30;;
3647;SDS011;1840;48.892;15.312;2023-01-15T06:47:12;8.40;;;5.33;;
3647;SDS011;1840;48.892;15.312;2023-01-15T06:49:49;9.70;;;6.00;;
3647;SDS011;1840;48.892;15.312;2023-01-15T06:52:19;8.20;;;6.50;;
3647;SDS011;1840;48.892;15.312;2023-01-15T06:54:47;5.30;;;3.90;;
3647;SDS011;1840;48.892;15.312;2023-01-15T06:57:15;11.70;;;7.47;;
3647;SDS011;1840;48.892;15.312;2023-01-15T06:59:44;10.67;;;5.83;;
3647;SDS011;1840;48.892;15.312;2023-01-15T07:02:13;8.63;;;4.20;;
3647;SDS011;1840;48.892;15.312;2023-01-15T07:04:43;6.30;;;2.63;;
3647;SDS011;1840;48.892;15.312;2023-01-15T07:07:11;6.83;;;2.60;;
3647;SDS011;1840;48.892;15.312;2023-01-15T07:09:40;4.33;;;2.63;;
3647;SDS011;1840;48.892;15.312;2023-01-15T07:12:07;4.67;;;2.80;;
3647;SDS011;1840;48.892;15.312;2023-01-15T07:14:35;7.40;;;3.53;;
3647;SDS011;1840;48.892;15.312;2023-01-15T07:17:04;5.30;;;3.03;;
3647;SDS011;1840;48.892;15.312;2023-01-15T07:19:33;9.30;;;3.47;;
3647;SDS011;1840;48.892;15.312;2023-01-15T07:22:01;6.77;;;3.50;;
3647;SDS011;1840;48.892;15.312;2023-01-15T07:24:29;7.03;;;4.17;;
3647;SDS011;1840;48.892;15.312;2023-01-15T07:26:57;9.40;;;4.53;;
3647;SDS011;1840;48.892;15.312;2023-01-15T07:29:26;7.60;;;4.40;;
3647;SDS011;1840;48.892;15.312;2023-01-15T07:31:56;7.73;;;5.43;;
3647;SDS011;1840;48.892;15.312;2023-01-15T07:34:24;14.67;;;7.90;;
3647;SDS011;1840;48.892;15.312;2023-01-15T07:36:53;13.93;;;8.27;;
3647;SDS011;1840;48.892;15.312;2023-01-15T07:39:21;9.27;;;6.47;;
3647;SDS011;1840;48.892;15.312;2023-01-15T07:41:49;9.83;;;4.10;;
3647;SDS011;1840;48.892;15.312;2023-01-15T07:44:35;8.33;;;5.47;;
3647;SDS011;1840;48.892;15.312;2023-01-15T07:47:22;10.30;;;6.20;;
3647;SDS011;1840;48.892;15.312;2023-01-15T07:50:09;16.87;;;7.53;;
3647;SDS011;1840;48.892;15.312;2023-01-15T07:52:40;18.70;;;8.70;;
3647;SDS011;1840;48.892;15.312;2023-01-15T07:55:08;12.57;;;6.97;;
3647;SDS011;1840;48.892;15.312;2023-01-15T07:57:38;12.10;;;8.17;;
3647;SDS011;1840;48.892;15.312;2023-01-15T08:00:07;9.00;;;5.93;;
3647;SDS011;1840;48.892;15.312;2023-01-15T08:02:37;17.17;;;10.00;;
3647;SDS011;1840;48.892;15.312;2023-01-15T08:05:06;21.80;;;13.90;;
3647;SDS011;1840;48.892;15.312;2023-01-15T08:07:36;20.90;;;12.57;;
3647;SDS011;1840;48.892;15.312;2023-01-15T08:10:07;15.83;;;10.03;;
3647;SDS011;1840;48.892;15.312;2023-01-15T08:12:36;13.17;;;7.40;;
3647;SDS011;1840;48.892;15.312;2023-01-15T08:15:23;12.53;;;7.40;;
3647;SDS011;1840;48.892;15.312;2023-01-15T08:17:51;11.57;;;7.57;;
3647;SDS011;1840;48.892;15.312;2023-01-15T08:20:20;13.20;;;5.87;;
3647;SDS011;1840;48.892;15.312;2023-01-15T08:22:51;12.60;;;7.10;;
3647;SDS011;1840;48.892;15.312;2023-01-15T08:25:22;10.00;;;6.17;;
3647;SDS011;1840;48.892;15.312;2023-01-15T08:27:52;10.53;;;7.97;;
3647;SDS011;1840;48.892;15.312;2023-01-15T08:30:20;19.07;;;9.33;;
3647;SDS011;1840;48.892;15.312;2023-01-15T08:32:51;13.83;;;7.47;;
3647;SDS011;1840;48.892;15.312;2023-01-15T08:35:19;20.17;;;10.67;;
3647;SDS011;1840;48.892;15.312;2023-01-15T08:37:47;21.67;;;12.57;;
3647;SDS011;1840;48.892;15.312;2023-01-15T08:40:15;23.13;;;15.20;;
3647;SDS011;1840;48.892;15.312;2023-01-15T08:42:45;21.17;;;13.97;;
3647;SDS011;1840;48.892;15.312;2023-01-15T08:45:13;22.13;;;13.60;;
3647;SDS011;1840;48.892;15.312;2023-01-15T08:47:41;20.27;;;11.67;;
3647;SDS011;1840;48.892;15.312;2023-01-15T08:50:09;24.33;;;12.17;;
3647;SDS011;1840;48.892;15.312;2023-01-15T08:52:37;19.73;;;12.07;;
3647;SDS011;1840;48.892;15.312;2023-01-15T08:55:06;21.20;;;12.90;;
3647;SDS011;1840;48.892;15.312;2023-01-15T08:57:34;27.50;;;17.67;;
3647;SDS011;1840;48.892;15.312;2023-01-15T09:00:06;20.70;;;11.10;;
3647;SDS011;1840;48.892;15.312;2023-01-15T09:02:34;14.50;;;9.10;;
3647;SDS011;1840;48.892;15.312;2023-01-15T09:05:02;11.33;;;8.50;;
3647;SDS011;1840;48.892;15.312;2023-01-15T09:07:31;11.63;;;7.60;;
3647;SDS011;1840;48.892;15.312;2023-01-15T09:10:00;13.87;;;9.20;;
3647;SDS011;1840;48.892;15.312;2023-01-15T09:12:29;71.83;;;43.90;;
3647;SDS011;1840;48.892;15.312;2023-01-15T09:14:58;31.13;;;23.40;;
3647;SDS011;1840;48.892;15.312;2023-01-15T09:17:32;21.83;;;16.17;;
3647;SDS011;1840;48.892;15.312;2023-01-15T09:20:06;27.87;;;18.50;;
3647;SDS011;1840;48.892;15.312;2023-01-15T09:22:36;22.00;;;13.70;;
3647;SDS011;1840;48.892;15.312;2023-01-15T09:25:04;33.00;;;20.00;;
3647;SDS011;1840;48.892;15.312;2023-01-15T09:27:33;27.00;;;16.60;;
3647;SDS011;1840;48.892;15.312;2023-01-15T09:30:03;16.87;;;10.70;;
3647;SDS011;1840;48.892;15.312;2023-01-15T09:32:35;16.37;;;8.93;;
3647;SDS011;1840;48.892;15.312;2023-01-15T09:35:03;16.13;;;9.50;;
3647;SDS011;1840;48.892;15.312;2023-01-15T09:37:31;14.57;;;8.50;;
3647;SDS011;1840;48.892;15.312;2023-01-15T09:40:00;26.10;;;15.30;;
3647;SDS011;1840;48.892;15.312;2023-01-15T09:42:33;28.67;;;17.50;;
3647;SDS011;1840;48.892;15.312;2023-01-15T09:45:15;17.90;;;11.00;;
3647;SDS011;1840;48.892;15.312;2023-01-15T09:48:03;21.77;;;10.83;;
3647;SDS011;1840;48.892;15.312;2023-01-15T09:50:47;21.63;;;13.83;;
3647;SDS011;1840;48.892;15.312;2023-01-15T09:53:33;20.20;;;12.97;;
3647;SDS011;1840;48.892;15.312;2023-01-15T09:56:21;13.07;;;8.93;;
3647;SDS011;1840;48.892;15.312;2023-01-15T09:58:55;13.57;;;8.27;;
3647;SDS011;1840;48.892;15.312;2023-01-15T10:01:27;13.07;;;8.97;;
3647;SDS011;1840;48.892;15.312;2023-01-15T10:04:00;15.40;;;7.60;;
3647;SDS011;1840;48.892;15.312;2023-01-15T10:06:32;15.63;;;7.17;;
3647;SDS011;1840;48.892;15.312;2023-01-15T10:09:08;11.40;;;7.87;;
3647;SDS011;1840;48.892;15.312;2023-01-15T10:11:41;14.63;;;8.27;;
3647;SDS011;1840;48.892;15.312;2023-01-15T10:14:34;12.60;;;7.57;;
3647;SDS011;1840;48.892;15.312;2023-01-15T10:17:17;14.03;;;8.73;;
3647;SDS011;1840;48.892;15.312;2023-01-15T10:19:50;13.13;;;8.33;;
3647;SDS011;1840;48.892;15.312;2023-01-15T10:22:22;13.73;;;8.83;;
3647;SDS011;1840;48.892;15.312;2023-01-15T10:24:58;13.10;;;8.40;;
3647;SDS011;1840;48.892;15.312;2023-01-15T10:27:31;15.20;;;8.17;;
3647;SDS011;1840;48.892;15.312;2023-01-15T10:30:04;11.70;;;7.27;;
3647;SDS011;1840;48.892;15.312;2023-01-15T10:32:42;10.57;;;7.73;;
3647;SDS011;1840;48.892;15.312;2023-01-15T10:35:32;10.40;;;7.57;;
3647;SDS011;1840;48.892;15.312;2023-01-15T10:38:10;17.93;;;10.73;;
3647;SDS011;1840;48.892;15.312;2023-01-15T10:40:45;11.80;;;7.73;;
3647;SDS011;1840;48.892;15.312;2023-01-15T10:43:36;15.60;;;9.00;;
3647;SDS011;1840;48.892;15.312;2023-01-15T10:46:10;17.20;;;8.47;;
3647;SDS011;1840;48.892;15.312;2023-01-15T10:48:41;13.67;;;7.60;;
3647;SDS011;1840;48.892;15.312;2023-01-15T10:51:14;12.80;;;8.40;;
3647;SDS011;1840;48.892;15.312;2023-01-15T10:53:46;25.20;;;16.00;;
3647;SDS011;1840;48.892;15.312;2023-01-15T10:56:20;20.27;;;13.10;;
3647;SDS011;1840;48.892;15.312;2023-01-15T10:59:00;31.47;;;15.73;;
3647;SDS011;1840;48.892;15.312;2023-01-15T11:01:35;27.10;;;12.53;;
3647;SDS011;1840;48.892;15.312;2023-01-15T11:04:05;12.50;;;8.67;;
3647;SDS011;1840;48.892;15.312;2023-01-15T11:06:36;33.67;;;15.90;;
3647;SDS011;1840;48.892;15.312;2023-01-15T11:09:04;26.67;;;12.00;;
3647;SDS011;1840;48.892;15.312;2023-01-15T11:11:37;32.47;;;14.20;;
3647;SDS011;1840;48.892;15.312;2023-01-15T11:14:33;15.40;;;9.00;;
3647;SDS011;1840;48.892;15.312;2023-01-15T11:17:21;11.83;;;7.80;;
3647;SDS011;1840;48.892;15.312;2023-01-15T11:20:09;16.70;;;7.50;;
3647;SDS011;1840;48.892;15.312;2023-01-15T11:22:46;14.17;;;7.83;;
3647;SDS011;1840;48.892;15.312;2023-01-15T11:25:23;10.33;;;7.60;;
3647;SDS011;1840;48.892;15.312;2023-01-15T11:27:53;13.20;;;8.40;;
3647;SDS011;1840;48.892;15.312;2023-01-15T11:30:26;14.97;;;8.70;;
3647;SDS011;1840;48.892;15.312;2023-01-15T11:32:57;15.27;;;9.27;;
3647;SDS011;1840;48.892;15.312;2023-01-15T11:35:29;13.60;;;8.50;;
3647;SDS011;1840;48.892;15.312;2023-01-15T11:38:02;16.40;;;9.30;;
3647;SDS011;1840;48.892;15.312;2023-01-15T11:40:32;19.33;;;10.70;;
3647;SDS011;1840;48.892;15.312;2023-01-15T11:43:00;17.40;;;9.70;;
3647;SDS011;1840;48.892;15.312;2023-01-15T11:45:46;12.10;;;8.43;;
3647;SDS011;1840;48.892;15.312;2023-01-15T11:48:34;44.27;;;26.10;;
3647;SDS011;1840;48.892;15.312;2023-01-15T11:51:27;13.43;;;7.90;;
3647;SDS011;1840;48.892;15.312;2023-01-15T11:54:00;12.00;;;7.70;;
3647;SDS011;1840;48.892;15.312;2023-01-15T11:56:30;13.43;;;8.70;;
3647;SDS011;1840;48.892;15.312;2023-01-15T11:59:01;14.47;;;9.07;;
3647;SDS011;1840;48.892;15.312;2023-01-15T12:01:36;16.13;;;9.40;;
3647;SDS011;1840;48.892;15.312;2023-01-15T12:04:21;13.40;;;9.37;;
3647;SDS011;1840;48.892;15.312;2023-01-15T12:06:56;13.97;;;8.20;;
3647;SDS011;1840;48.892;15.312;2023-01-15T12:09:29;19.23;;;12.80;;
3647;SDS011;1840;48.892;15.312;2023-01-15T12:12:11;21.27;;;12.43;;
3647;SDS011;1840;48.892;15.312;2023-01-15T12:14:49;17.77;;;11.43;;
3647;SDS011;1840;48.892;15.312;2023-01-15T12:17:34;19.70;;;11.50;;
3647;SDS011;1840;48.892;15.312;2023-01-15T12:20:19;28.70;;;13.13;;
3647;SDS011;1840;48.892;15.312;2023-01-15T12:23:01;21.20;;;12.47;;
3647;SDS011;1840;48.892;15.312;2023-01-15T12:25:47;12.60;;;7.80;;
3647;SDS011;1840;48.892;15.312;2023-01-15T12:28:21;12.97;;;8.27;;
3647;SDS011;1840;48.892;15.312;2023-01-15T12:30:54;15.23;;;8.37;;
3647;SDS011;1840;48.892;15.312;2023-01-15T12:33:31;13.97;;;9.27;;
3647;SDS011;1840;48.892;15.312;2023-01-15T12:36:07;14.17;;;9.27;;
3647;SDS011;1840;48.892;15.312;2023-01-15T12:38:43;9.90;;;7.50;;
3647;SDS011;1840;48.892;15.312;2023-01-15T12:41:18;12.50;;;7.73;;
3647;SDS011;1840;48.892;15.312;2023-01-15T12:43:51;11.13;;;8.40;;
3647;SDS011;1840;48.892;15.312;2023-01-15T12:46:41;15.40;;;8.90;;
3647;SDS011;1840;48.892;15.312;2023-01-15T12:49:14;10.93;;;7.13;;
3647;SDS011;1840;48.892;15.312;2023-01-15T12:51:56;12.87;;;8.17;;
3647;SDS011;1840;48.892;15.312;2023-01-15T12:54:33;12.97;;;7.47;;
3647;SDS011;1840;48.892;15.312;2023-01-15T12:57:08;11.63;;;7.13;;
3647;SDS011;1840;48.892;15.312;2023-01-15T12:59:44;14.50;;;8.43;;
3647;SDS011;1840;48.892;15.312;2023-01-15T13:02:16;13.13;;;8.10;;
3647;SDS011;1840;48.892;15.312;2023-01-15T13:04:49;12.00;;;7.93;;
3647;SDS011;1840;48.892;15.312;2023-01-15T13:07:20;12.23;;;7.60;;
3647;SDS011;1840;48.892;15.312;2023-01-15T13:09:55;16.93;;;8.70;;
3647;SDS011;1840;48.892;15.312;2023-01-15T13:12:33;10.37;;;7.20;;
3647;SDS011;1840;48.892;15.312;2023-01-15T13:15:02;65.40;;;32.33;;
3647;SDS011;1840;48.892;15.312;2023-01-15T13:17:32;20.37;;;13.37;;
3647;SDS011;1840;48.892;15.312;2023-01-15T13:20:26;11.30;;;7.60;;
3647;SDS011;1840;48.892;15.312;2023-01-15T13:23:06;11.33;;;7.70;;
3647;SDS011;1840;48.892;15.312;2023-01-15T13:25:58;11.63;;;8.90;;
3647;SDS011;1840;48.892;15.312;2023-01-15T13:28:41;16.70;;;9.33;;
3647;SDS011;1840;48.892;15.312;2023-01-15T13:31:29;16.53;;;9.90;;
3647;SDS011;1840;48.892;15.312;2023-01-15T13:34:12;12.70;;;8.77;;
3647;SDS011;1840;48.892;15.312;2023-01-15T13:36:45;18.60;;;11.57;;
3647;SDS011;1840;48.892;15.312;2023-01-15T13:39:16;18.23;;;10.97;;
3647;SDS011;1840;48.892;15.312;2023-01-15T13:41:49;12.10;;;8.33;;
3647;SDS011;1840;48.892;15.312;2023-01-15T13:44:39;12.47;;;8.87;;
3647;SDS011;1840;48.892;15.312;2023-01-15T13:47:16;17.30;;;9.10;;
3647;SDS011;1840;48.892;15.312;2023-01-15T13:49:48;11.60;;;8.60;;
3647;SDS011;1840;48.892;15.312;2023-01-15T13:52:20;14.73;;;8.93;;
3647;SDS011;1840;48.892;15.312;2023-01-15T13:54:51;14.00;;;9.27;;
3647;SDS011;1840;48.892;15.312;2023-01-15T13:57:22;13.10;;;9.70;;
3647;SDS011;1840;48.892;15.312;2023-01-15T13:59:59;14.07;;;10.00;;
3647;SDS011;1840;48.892;15.312;2023-01-15T14:02:30;12.97;;;9.10;;
3647;SDS011;1840;48.892;15.312;2023-01-15T14:05:10;11.73;;;8.67;;
3647;SDS011;1840;48.892;15.312;2023-01-15T14:07:40;15.90;;;10.17;;
3647;SDS011;1840;48.892;15.312;2023-01-15T14:10:09;15.93;;;10.00;;
3647;SDS011;1840;48.892;15.312;2023-01-15T14:12:51;16.33;;;9.40;;
3647;SDS011;1840;48.892;15.312;2023-01-15T14:15:37;13.77;;;9.43;;
3647;SDS011;1840;48.892;15.312;2023-01-15T14:18:16;13.03;;;9.40;;
3647;SDS011;1840;48.892;15.312;2023-01-15T14:20:59;13.20;;;8.87;;
3647;SDS011;1840;48.892;15.312;2023-01-15T14:23:47;13.87;;;10.30;;
3647;SDS011;1840;48.892;15.312;2023-01-15T14:26:38;16.10;;;11.07;;
3647;SDS011;1840;48.892;15.312;2023-01-15T14:29:28;17.20;;;10.87;;
3647;SDS011;1840;48.892;15.312;2023-01-15T14:32:19;14.10;;;10.00;;
3647;SDS011;1840;48.892;15.312;2023-01-15T14:34:54;19.67;;;12.53;;
3647;SDS011;1840;48.892;15.312;2023-01-15T14:37:25;21.57;;;12.27;;
3647;SDS011;1840;48.892;15.312;2023-01-15T14:39:56;17.17;;;10.67;;
3647;SDS011;1840;48.892;15.312;2023-01-15T14:42:28;17.00;;;11.30;;
3647;SDS011;1840;48.892;15.312;2023-01-15T14:45:17;9.30;;;6.57;;
3647;SDS011;1840;48.892;15.312;2023-01-15T14:47:54;11.97;;;4.60;;
3647;SDS011;1840;48.892;15.312;2023-01-15T14:50:30;1.87;;;1.27;;
3647;SDS011;1840;48.892;15.312;2023-01-15T14:53:16;1.60;;;1.17;;
3647;SDS011;1840;48.892;15.312;2023-01-15T14:55:55;2.70;;;1.23;;
3647;SDS011;1840;48.892;15.312;2023-01-15T14:58:31;2.00;;;1.10;;
3647;SDS011;1840;48.892;15.312;2023-01-15T15:01:10;2.03;;;1.20;;
3647;SDS011;1840;48.892;15.312;2023-01-15T15:03:47;1.57;;;1.00;;
3647;SDS011;1840;48.892;15.312;2023-01-15T15:06:19;1.60;;;0.83;;
3647;SDS011;1840;48.892;15.312;2023-01-15T15:08:48;1.20;;;0.90;;
3647;SDS011;1840;48.892;15.312;2023-01-15T15:11:20;1.20;;;0.90;;
3647;SDS011;1840;48.892;15.312;2023-01-15T15:14:12;2.23;;;1.53;;
3647;SDS011;1840;48.892;15.312;2023-01-15T15:16:42;2.17;;;1.20;;
3647;SDS011;1840;48.892;15.312;2023-01-15T15:19:17;1.77;;;1.20;;
3647;SDS011;1840;48.892;15.312;2023-01-15T15:21:53;1.70;;;1.17;;
3647;SDS011;1840;48.892;15.312;2023-01-15T15:24:25;1.63;;;1.20;;
3647;SDS011;1840;48.892;15.312;2023-01-15T15:26:56;3.00;;;1.50;;
3647;SDS011;1840;48.892;15.312;2023-01-15T15:29:24;2.77;;;1.83;;